sensor_id;sensor_type;location;lat;lon;timestamp;P1;durP1;ratioP1;P2;durP2;ratioP2
63114;SDS011;49208;50.874;6.466;2022-12-29T08:53:25;5.30;;;1.33;;
63114;SDS011;49208;50.874;6.466;2022-12-29T08:55:59;3.92;;;1.35;;
63114;SDS011;49208;50.874;6.466;2022-12-29T08:58:26;4.38;;;1.10;;
63114;SDS011;49208;50.874;6.466;2022-12-29T09:00:55;9.00;;;2.10;;
63114;SDS011;49208;50.874;6.466;2022-12-29T09:03:22;5.32;;;1.83;;
63114;SDS011;49208;50.874;6.466;2022-12-29T09:05:49;7.05;;;1.63;;
63114;SDS011;49208;50.874;6.466;2022-12-29T09:08:15;7.88;;;1.65;;
63114;SDS011;49208;50.874;6.466;2022-12-29T09:10:41;7.28;;;1.10;;
63114;SDS011;49208;50.874;6.466;2022-12-29T09:13:07;5.63;;;1.10;;
63114;SDS011;49208;50.874;6.466;2022-12-29T09:15:32;7.78;;;1.20;;
63114;SDS011;49208;50.874;6.466;2022-12-29T09:17:58;9.55;;;3.33;;
63114;SDS011;49208;50.874;6.466;2022-12-29T09:20:23;11.95;;;1.85;;
63114;SDS011;49208;50.874;6.466;2022-12-29T09:22:48;8.95;;;1.73;;
63114;SDS011;49208;50.874;6.466;2022-12-29T09:25:14;7.22;;;1.58;;
63114;SDS011;49208;50.874;6.466;2022-12-29T09:27:40;5.50;;;1.30;;
63114;SDS011;49208;50.874;6.466;2022-12-29T09:30:07;5.38;;;1.08;;
63114;SDS011;49208;50.874;6.466;2022-12-29T09:32:35;8.05;;;1.33;;
63114;SDS011;49208;50.874;6.466;2022-12-29T09:35:00;6.20;;;1.58;;
63114;SDS011;49208;50.874;6.466;2022-12-29T09:37:26;5.78;;;1.42;;
63114;SDS011;49208;50.874;6.466;2022-12-29T09:39:51;4.95;;;1.58;;
63114;SDS011;49208;50.874;6.466;2022-12-29T09:47:24;8.77;;;1.33;;
63114;SDS011;49208;50.874;6.466;2022-12-29T09:49:54;9.02;;;1.10;;
63114;SDS011;49208;50.874;6.466;2022-12-29T09:52:25;4.57;;;1.00;;
63114;SDS011;49208;50.874;6.466;2022-12-29T09:57:26;9.52;;;1.52;;
63114;SDS011;49208;50.874;6.466;2022-12-29T10:00:06;8.30;;;1.45;;
63114;SDS011;49208;50.874;6.466;2022-12-29T10:02:38;4.85;;;1.30;;
63114;SDS011;49208;50.874;6.466;2022-12-29T10:16:26;9.10;;;1.70;;
63114;SDS011;49208;50.874;6.466;2022-12-29T10:19:20;8.98;;;1.98;;
63114;SDS011;49208;50.874;6.466;2022-12-29T10:24:37;6.68;;;1.70;;
63114;SDS011;49208;50.874;6.466;2022-12-29T10:27:04;4.68;;;1.73;;
63114;SDS011;49208;50.874;6.466;2022-12-29T10:29:37;11.07;;;4.13;;
63114;SDS011;49208;50.874;6.466;2022-12-29T10:32:06;5.45;;;1.08;;
63114;SDS011;49208;50.874;6.466;2022-12-29T10:34:43;6.93;;;1.45;;
63114;SDS011;49208;50.874;6.466;2022-12-29T10:39:56;7.60;;;1.35;;
63114;SDS011;49208;50.874;6.466;2022-12-29T10:44:53;7.65;;;1.23;;
63114;SDS011;49208;50.874;6.466;2022-12-29T10:47:24;6.65;;;1.30;;
63114;SDS011;49208;50.874;6.466;2022-12-29T10:49:54;8.60;;;1.60;;
63114;SDS011;49208;50.874;6.466;2022-12-29T10:52:23;8.43;;;1.48;;
63114;SDS011;49208;50.874;6.466;2022-12-29T10:58:04;5.68;;;1.48;;
63114;SDS011;49208;50.874;6.466;2022-12-29T11:00:32;6.68;;;1.13;;
63114;SDS011;49208;50.874;6.466;2022-12-29T11:05:37;9.13;;;1.50;;
63114;SDS011;49208;50.874;6.466;2022-12-29T11:08:10;9.63;;;1.50;;
63114;SDS011;49208;50.874;6.466;2022-12-29T11:10:38;9.05;;;1.60;;
63114;SDS011;49208;50.874;6.466;2022-12-29T11:13:14;7.90;;;1.30;;
63114;SDS011;49208;50.874;6.466;2022-12-29T11:15:49;10.88;;;1.70;;
63114;SDS011;49208;50.874;6.466;2022-12-29T11:20:55;7.78;;;1.60;;
63114;SDS011;49208;50.874;6.466;2022-12-29T11:23:39;6.85;;;1.10;;
63114;SDS011;49208;50.874;6.466;2022-12-29T11:26:15;7.93;;;1.20;;
63114;SDS011;49208;50.874;6.466;2022-12-29T11:31:46;14.90;;;1.95;;
63114;SDS011;49208;50.874;6.466;2022-12-29T11:34:16;11.80;;;1.70;;
63114;SDS011;49208;50.874;6.466;2022-12-29T11:39:17;7.43;;;1.90;;
63114;SDS011;49208;50.874;6.466;2022-12-29T11:41:54;7.97;;;1.48;;
63114;SDS011;49208;50.874;6.466;2022-12-29T11:44:20;5.30;;;2.05;;
63114;SDS011;49208;50.874;6.466;2022-12-29T11:46:46;9.02;;;1.67;;
63114;SDS011;49208;50.874;6.466;2022-12-29T11:49:20;8.15;;;1.40;;
63114;SDS011;49208;50.874;6.466;2022-12-29T11:51:48;5.78;;;1.30;;
63114;SDS011;49208;50.874;6.466;2022-12-29T11:56:52;14.50;;;2.58;;
63114;SDS011;49208;50.874;6.466;2022-12-29T12:01:54;9.32;;;1.60;;
63114;SDS011;49208;50.874;6.466;2022-12-29T12:04:23;7.97;;;1.63;;
63114;SDS011;49208;50.874;6.466;2022-12-29T12:09:57;9.98;;;2.28;;
63114;SDS011;49208;50.874;6.466;2022-12-29T12:15:34;8.55;;;1.67;;
63114;SDS011;49208;50.874;6.466;2022-12-29T12:18:12;5.43;;;1.63;;
63114;SDS011;49208;50.874;6.466;2022-12-29T12:20:44;4.88;;;1.80;;
63114;SDS011;49208;50.874;6.466;2022-12-29T12:26:12;9.00;;;1.50;;
63114;SDS011;49208;50.874;6.466;2022-12-29T12:33:47;8.07;;;1.60;;
63114;SDS011;49208;50.874;6.466;2022-12-29T12:42:11;5.95;;;1.42;;
63114;SDS011;49208;50.874;6.466;2022-12-29T13:01:48;8.43;;;1.38;;
63114;SDS011;49208;50.874;6.466;2022-12-29T13:04:48;6.45;;;1.42;;
63114;SDS011;49208;50.874;6.466;2022-12-29T13:30:53;4.78;;;1.05;;
63114;SDS011;49208;50.874;6.466;2022-12-29T13:36:21;6.70;;;1.63;;
63114;SDS011;49208;50.874;6.466;2022-12-29T13:38:58;5.93;;;1.50;;
63114;SDS011;49208;50.874;6.466;2022-12-29T13:41:57;5.07;;;1.08;;
63114;SDS011;49208;50.874;6.466;2022-12-29T13:44:26;6.55;;;0.98;;
63114;SDS011;49208;50.874;6.466;2022-12-29T13:46:56;9.50;;;1.30;;
63114;SDS011;49208;50.874;6.466;2022-12-29T13:49:26;4.32;;;1.63;;
63114;SDS011;49208;50.874;6.466;2022-12-29T13:51:56;7.97;;;1.20;;
63114;SDS011;49208;50.874;6.466;2022-12-29T13:54:35;6.68;;;1.15;;
63114;SDS011;49208;50.874;6.466;2022-12-29T13:57:18;4.85;;;1.27;;
63114;SDS011;49208;50.874;6.466;2022-12-29T14:07:42;4.80;;;2.03;;
63114;SDS011;49208;50.874;6.466;2022-12-29T14:10:27;8.25;;;1.63;;
63114;SDS011;49208;50.874;6.466;2022-12-29T14:13:22;8.95;;;2.17;;
63114;SDS011;49208;50.874;6.466;2022-12-29T14:15:51;11.30;;;1.20;;
63114;SDS011;49208;50.874;6.466;2022-12-29T14:18:21;3.00;;;1.38;;
63114;SDS011;49208;50.874;6.466;2022-12-29T14:23:39;4.90;;;1.20;;
63114;SDS011;49208;50.874;6.466;2022-12-29T14:28:31;3.97;;;1.23;;
63114;SDS011;49208;50.874;6.466;2022-12-29T14:31:05;5.68;;;1.40;;
63114;SDS011;49208;50.874;6.466;2022-12-29T14:33:31;5.22;;;1.20;;
63114;SDS011;49208;50.874;6.466;2022-12-29T14:36:18;4.78;;;1.27;;
63114;SDS011;49208;50.874;6.466;2022-12-29T14:38:45;7.15;;;1.70;;
63114;SDS011;49208;50.874;6.466;2022-12-29T14:41:16;5.10;;;1.30;;
63114;SDS011;49208;50.874;6.466;2022-12-29T14:43:55;5.72;;;1.45;;
63114;SDS011;49208;50.874;6.466;2022-12-29T14:46:23;9.70;;;1.55;;
63114;SDS011;49208;50.874;6.466;2022-12-29T14:48:54;6.25;;;1.35;;
63114;SDS011;49208;50.874;6.466;2022-12-29T14:51:40;16.00;;;2.63;;
63114;SDS011;49208;50.874;6.466;2022-12-29T14:56:59;4.60;;;1.40;;
63114;SDS011;49208;50.874;6.466;2022-12-29T14:59:28;9.35;;;2.15;;
63114;SDS011;49208;50.874;6.466;2022-12-29T15:01:57;10.82;;;1.55;;
63114;SDS011;49208;50.874;6.466;2022-12-29T15:04:25;7.25;;;2.00;;
63114;SDS011;49208;50.874;6.466;2022-12-29T15:06:55;9.13;;;1.63;;
63114;SDS011;49208;50.874;6.466;2022-12-29T15:09:25;5.72;;;1.35;;
63114;SDS011;49208;50.874;6.466;2022-12-29T15:12:31;8.18;;;1.92;;
63114;SDS011;49208;50.874;6.466;2022-12-29T15:14:59;6.90;;;1.92;;
63114;SDS011;49208;50.874;6.466;2022-12-29T15:17:31;10.07;;;2.17;;
63114;SDS011;49208;50.874;6.466;2022-12-29T15:20:14;11.32;;;1.55;;
63114;SDS011;49208;50.874;6.466;2022-12-29T15:22:54;12.63;;;1.92;;
63114;SDS011;49208;50.874;6.466;2022-12-29T15:25:25;6.97;;;1.35;;
63114;SDS011;49208;50.874;6.466;2022-12-29T15:27:52;7.88;;;1.58;;
63114;SDS011;49208;50.874;6.466;2022-12-29T15:30:22;9.43;;;2.03;;
63114;SDS011;49208;50.874;6.466;2022-12-29T15:32:48;13.63;;;2.03;;
63114;SDS011;49208;50.874;6.466;2022-12-29T15:38:15;7.65;;;1.50;;
63114;SDS011;49208;50.874;6.466;2022-12-29T15:40:45;9.40;;;2.03;;
63114;SDS011;49208;50.874;6.466;2022-12-29T15:48:25;10.43;;;1.80;;
63114;SDS011;49208;50.874;6.466;2022-12-29T15:50:50;9.38;;;2.33;;
63114;SDS011;49208;50.874;6.466;2022-12-29T15:53:24;6.78;;;1.42;;
63114;SDS011;49208;50.874;6.466;2022-12-29T15:55:56;10.00;;;1.48;;
63114;SDS011;49208;50.874;6.466;2022-12-29T15:58:27;14.13;;;2.42;;
63114;SDS011;49208;50.874;6.466;2022-12-29T16:00:58;6.65;;;1.65;;
63114;SDS011;49208;50.874;6.466;2022-12-29T16:03:27;9.57;;;2.20;;
63114;SDS011;49208;50.874;6.466;2022-12-29T16:06:06;5.80;;;1.65;;
63114;SDS011;49208;50.874;6.466;2022-12-29T16:08:35;4.85;;;1.48;;
63114;SDS011;49208;50.874;6.466;2022-12-29T16:11:26;13.05;;;2.65;;
63114;SDS011;49208;50.874;6.466;2022-12-29T16:13:56;9.70;;;1.88;;
63114;SDS011;49208;50.874;6.466;2022-12-29T16:16:29;13.07;;;2.95;;
63114;SDS011;49208;50.874;6.466;2022-12-29T16:19:00;11.02;;;2.58;;
63114;SDS011;49208;50.874;6.466;2022-12-29T16:21:32;6.53;;;1.63;;
63114;SDS011;49208;50.874;6.466;2022-12-29T16:24:01;7.50;;;2.10;;
63114;SDS011;49208;50.874;6.466;2022-12-29T16:26:31;10.02;;;2.47;;
63114;SDS011;49208;50.874;6.466;2022-12-29T16:28:58;7.25;;;2.30;;
63114;SDS011;49208;50.874;6.466;2022-12-29T16:37:51;16.77;;;3.20;;
63114;SDS011;49208;50.874;6.466;2022-12-29T16:40:00;8.38;;;2.05;;
63114;SDS011;49208;50.874;6.466;2022-12-29T16:42:48;9.07;;;2.35;;
63114;SDS011;49208;50.874;6.466;2022-12-29T16:47:46;8.02;;;2.47;;
63114;SDS011;49208;50.874;6.466;2022-12-29T16:52:46;10.65;;;2.50;;
63114;SDS011;49208;50.874;6.466;2022-12-29T16:55:17;12.75;;;2.47;;
63114;SDS011;49208;50.874;6.466;2022-12-29T16:57:44;10.38;;;2.75;;
63114;SDS011;49208;50.874;6.466;2022-12-29T17:00:23;8.60;;;2.00;;
63114;SDS011;49208;50.874;6.466;2022-12-29T17:02:51;10.70;;;2.70;;
63114;SDS011;49208;50.874;6.466;2022-12-29T17:05:19;7.90;;;3.05;;
63114;SDS011;49208;50.874;6.466;2022-12-29T17:07:45;8.60;;;1.80;;
63114;SDS011;49208;50.874;6.466;2022-12-29T17:10:11;9.05;;;2.67;;
63114;SDS011;49208;50.874;6.466;2022-12-29T17:12:39;7.65;;;2.15;;
63114;SDS011;49208;50.874;6.466;2022-12-29T17:15:11;9.13;;;2.35;;
63114;SDS011;49208;50.874;6.466;2022-12-29T17:17:43;5.93;;;2.70;;
63114;SDS011;49208;50.874;6.466;2022-12-29T17:20:21;13.48;;;2.70;;
63114;SDS011;49208;50.874;6.466;2022-12-29T17:22:49;6.75;;;2.30;;
63114;SDS011;49208;50.874;6.466;2022-12-29T17:25:20;14.52;;;3.45;;
63114;SDS011;49208;50.874;6.466;2022-12-29T17:28:01;11.77;;;2.80;;
63114;SDS011;49208;50.874;6.466;2022-12-29T17:30:30;7.70;;;2.53;;
63114;SDS011;49208;50.874;6.466;2022-12-29T17:32:59;10.05;;;2.75;;
63114;SDS011;49208;50.874;6.466;2022-12-29T17:35:27;10.25;;;3.65;;
63114;SDS011;49208;50.874;6.466;2022-12-29T17:37:52;7.75;;;2.45;;
63114;SDS011;49208;50.874;6.466;2022-12-29T17:40:28;8.50;;;2.45;;
63114;SDS011;49208;50.874;6.466;2022-12-29T17:42:56;11.33;;;2.80;;
63114;SDS011;49208;50.874;6.466;2022-12-29T17:45:26;9.70;;;2.05;;
63114;SDS011;49208;50.874;6.466;2022-12-29T17:47:53;9.38;;;2.40;;
63114;SDS011;49208;50.874;6.466;2022-12-29T17:50:20;8.00;;;2.05;;
63114;SDS011;49208;50.874;6.466;2022-12-29T17:52:52;11.10;;;2.90;;
63114;SDS011;49208;50.874;6.466;2022-12-29T17:55:20;19.77;;;2.92;;
63114;SDS011;49208;50.874;6.466;2022-12-29T17:57:48;9.70;;;2.72;;
63114;SDS011;49208;50.874;6.466;2022-12-29T18:00:17;16.13;;;2.80;;
63114;SDS011;49208;50.874;6.466;2022-12-29T18:02:48;10.25;;;3.47;;
63114;SDS011;49208;50.874;6.466;2022-12-29T18:07:44;14.73;;;2.47;;
63114;SDS011;49208;50.874;6.466;2022-12-29T18:10:10;15.77;;;3.45;;
63114;SDS011;49208;50.874;6.466;2022-12-29T18:12:39;10.80;;;3.05;;
63114;SDS011;49208;50.874;6.466;2022-12-29T18:15:16;11.77;;;3.17;;
63114;SDS011;49208;50.874;6.466;2022-12-29T18:17:44;10.50;;;3.15;;
63114;SDS011;49208;50.874;6.466;2022-12-29T18:20:11;15.70;;;3.45;;
63114;SDS011;49208;50.874;6.466;2022-12-29T18:22:36;8.88;;;3.03;;
63114;SDS011;49208;50.874;6.466;2022-12-29T18:25:02;11.73;;;2.50;;
63114;SDS011;49208;50.874;6.466;2022-12-29T18:27:41;10.93;;;2.90;;
63114;SDS011;49208;50.874;6.466;2022-12-29T18:30:06;11.63;;;3.05;;
63114;SDS011;49208;50.874;6.466;2022-12-29T18:32:32;13.98;;;3.38;;
63114;SDS011;49208;50.874;6.466;2022-12-29T18:34:57;13.88;;;4.03;;
63114;SDS011;49208;50.874;6.466;2022-12-29T18:37:23;16.08;;;3.50;;
63114;SDS011;49208;50.874;6.466;2022-12-29T18:39:48;10.25;;;2.80;;
63114;SDS011;49208;50.874;6.466;2022-12-29T18:42:15;16.70;;;2.65;;
63114;SDS011;49208;50.874;6.466;2022-12-29T18:44:42;14.82;;;3.47;;
63114;SDS011;49208;50.874;6.466;2022-12-29T18:47:08;15.13;;;3.03;;
63114;SDS011;49208;50.874;6.466;2022-12-29T18:49:33;10.45;;;2.15;;
63114;SDS011;49208;50.874;6.466;2022-12-29T18:51:58;16.05;;;2.67;;
63114;SDS011;49208;50.874;6.466;2022-12-29T18:54:25;17.63;;;2.97;;
63114;SDS011;49208;50.874;6.466;2022-12-29T18:56:55;15.20;;;2.90;;
63114;SDS011;49208;50.874;6.466;2022-12-29T18:59:20;8.63;;;2.20;;
63114;SDS011;49208;50.874;6.466;2022-12-29T19:01:46;11.02;;;3.47;;
63114;SDS011;49208;50.874;6.466;2022-12-29T19:04:12;9.13;;;2.70;;
63114;SDS011;49208;50.874;6.466;2022-12-29T19:06:38;7.57;;;2.55;;
63114;SDS011;49208;50.874;6.466;2022-12-29T19:09:04;8.57;;;2.10;;
63114;SDS011;49208;50.874;6.466;2022-12-29T19:11:29;8.38;;;2.17;;
63114;SDS011;49208;50.874;6.466;2022-12-29T19:13:55;11.27;;;2.50;;
63114;SDS011;49208;50.874;6.466;2022-12-29T19:16:20;9.27;;;4.72;;
63114;SDS011;49208;50.874;6.466;2022-12-29T19:18:47;9.05;;;2.65;;
63114;SDS011;49208;50.874;6.466;2022-12-29T19:21:13;7.97;;;2.30;;
63114;SDS011;49208;50.874;6.466;2022-12-29T19:23:39;8.98;;;3.17;;
63114;SDS011;49208;50.874;6.466;2022-12-29T19:26:04;11.05;;;2.63;;
63114;SDS011;49208;50.874;6.466;2022-12-29T19:28:30;10.07;;;2.70;;
63114;SDS011;49208;50.874;6.466;2022-12-29T19:30:59;6.88;;;2.65;;
63114;SDS011;49208;50.874;6.466;2022-12-29T19:33:25;13.38;;;2.53;;
63114;SDS011;49208;50.874;6.466;2022-12-29T19:35:52;9.15;;;2.58;;
63114;SDS011;49208;50.874;6.466;2022-12-29T19:38:22;10.45;;;2.20;;
63114;SDS011;49208;50.874;6.466;2022-12-29T19:40:48;8.77;;;2.58;;
63114;SDS011;49208;50.874;6.466;2022-12-29T19:43:15;11.65;;;3.28;;
63114;SDS011;49208;50.874;6.466;2022-12-29T19:45:41;9.15;;;2.88;;
63114;SDS011;49208;50.874;6.466;2022-12-29T19:48:16;9.45;;;3.08;;
63114;SDS011;49208;50.874;6.466;2022-12-29T19:50:42;7.15;;;2.15;;
63114;SDS011;49208;50.874;6.466;2022-12-29T19:53:08;10.82;;;3.47;;
63114;SDS011;49208;50.874;6.466;2022-12-29T19:55:35;14.32;;;3.00;;
63114;SDS011;49208;50.874;6.466;2022-12-29T19:58:00;12.93;;;3.63;;
63114;SDS011;49208;50.874;6.466;2022-12-29T20:00:25;12.00;;;4.53;;
63114;SDS011;49208;50.874;6.466;2022-12-29T20:02:51;9.15;;;2.70;;
63114;SDS011;49208;50.874;6.466;2022-12-29T20:05:16;18.05;;;2.90;;
63114;SDS011;49208;50.874;6.466;2022-12-29T20:07:43;8.25;;;2.30;;
63114;SDS011;49208;50.874;6.466;2022-12-29T20:10:08;15.55;;;3.05;;
63114;SDS011;49208;50.874;6.466;2022-12-29T20:12:34;11.18;;;2.47;;
63114;SDS011;49208;50.874;6.466;2022-12-29T20:17:27;12.50;;;3.38;;
63114;SDS011;49208;50.874;6.466;2022-12-29T20:19:53;11.45;;;2.63;;
63114;SDS011;49208;50.874;6.466;2022-12-29T20:22:18;14.52;;;2.75;;
63114;SDS011;49208;50.874;6.466;2022-12-29T20:24:43;11.68;;;2.80;;
63114;SDS011;49208;50.874;6.466;2022-12-29T20:27:10;11.88;;;2.80;;
63114;SDS011;49208;50.874;6.466;2022-12-29T20:29:38;19.48;;;3.63;;
63114;SDS011;49208;50.874;6.466;2022-12-29T20:32:11;9.48;;;2.47;;
63114;SDS011;49208;50.874;6.466;2022-12-29T20:34:39;10.35;;;2.70;;
63114;SDS011;49208;50.874;6.466;2022-12-29T20:37:05;8.93;;;2.73;;
63114;SDS011;49208;50.874;6.466;2022-12-29T20:39:31;12.88;;;3.28;;
63114;SDS011;49208;50.874;6.466;2022-12-29T20:41:57;12.63;;;2.92;;
63114;SDS011;49208;50.874;6.466;2022-12-29T20:44:23;8.87;;;3.17;;
63114;SDS011;49208;50.874;6.466;2022-12-29T20:46:49;8.98;;;2.83;;
63114;SDS011;49208;50.874;6.466;2022-12-29T20:49:15;10.88;;;3.17;;
63114;SDS011;49208;50.874;6.466;2022-12-29T20:51:40;12.60;;;2.85;;
63114;SDS011;49208;50.874;6.466;2022-12-29T20:54:09;9.90;;;2.60;;
63114;SDS011;49208;50.874;6.466;2022-12-29T20:56:36;16.45;;;2.60;;
63114;SDS011;49208;50.874;6.466;2022-12-29T20:59:01;9.77;;;2.40;;
63114;SDS011;49208;50.874;6.466;2022-12-29T21:01:27;11.40;;;2.53;;
63114;SDS011;49208;50.874;6.466;2022-12-29T21:03:53;10.88;;;2.50;;
63114;SDS011;49208;50.874;6.466;2022-12-29T21:06:18;17.00;;;2.55;;
63114;SDS011;49208;50.874;6.466;2022-12-29T21:08:46;11.43;;;2.47;;
63114;SDS011;49208;50.874;6.466;2022-12-29T21:11:13;7.53;;;2.50;;
63114;SDS011;49208;50.874;6.466;2022-12-29T21:13:39;10.13;;;2.33;;
63114;SDS011;49208;50.874;6.466;2022-12-29T21:16:05;11.27;;;2.80;;
63114;SDS011;49208;50.874;6.466;2022-12-29T21:18:32;10.77;;;1.95;;
63114;SDS011;49208;50.874;6.466;2022-12-29T21:21:02;9.63;;;2.30;;
63114;SDS011;49208;50.874;6.466;2022-12-29T21:23:30;11.95;;;2.22;;
63114;SDS011;49208;50.874;6.466;2022-12-29T21:25:56;9.90;;;2.42;;
63114;SDS011;49208;50.874;6.466;2022-12-29T21:28:22;11.38;;;2.78;;
63114;SDS011;49208;50.874;6.466;2022-12-29T21:30:48;8.82;;;1.95;;
63114;SDS011;49208;50.874;6.466;2022-12-29T21:33:15;11.40;;;2.83;;
63114;SDS011;49208;50.874;6.466;2022-12-29T21:35:45;13.25;;;2.78;;
63114;SDS011;49208;50.874;6.466;2022-12-29T21:38:11;16.92;;;3.35;;
63114;SDS011;49208;50.874;6.466;2022-12-29T21:40:37;7.80;;;2.58;;
63114;SDS011;49208;50.874;6.466;2022-12-29T21:43:04;7.95;;;2.42;;
63114;SDS011;49208;50.874;6.466;2022-12-29T21:45:31;15.13;;;3.15;;
63114;SDS011;49208;50.874;6.466;2022-12-29T21:48:04;14.98;;;3.85;;
63114;SDS011;49208;50.874;6.466;2022-12-29T21:50:48;13.43;;;2.92;;
63114;SDS011;49208;50.874;6.466;2022-12-29T21:53:35;11.43;;;2.65;;
63114;SDS011;49208;50.874;6.466;2022-12-29T21:56:03;12.32;;;2.22;;
63114;SDS011;49208;50.874;6.466;2022-12-29T21:58:34;15.30;;;2.58;;
63114;SDS011;49208;50.874;6.466;2022-12-29T22:01:19;18.80;;;3.45;;
63114;SDS011;49208;50.874;6.466;2022-12-29T22:04:03;14.13;;;3.08;;
63114;SDS011;49208;50.874;6.466;2022-12-29T22:06:48;13.70;;;2.53;;
63114;SDS011;49208;50.874;6.466;2022-12-29T22:09:32;19.00;;;2.97;;
63114;SDS011;49208;50.874;6.466;2022-12-29T22:12:17;8.38;;;2.53;;
63114;SDS011;49208;50.874;6.466;2022-12-29T22:15:00;17.50;;;2.50;;
63114;SDS011;49208;50.874;6.466;2022-12-29T22:17:26;13.18;;;2.45;;
63114;SDS011;49208;50.874;6.466;2022-12-29T22:19:51;11.05;;;2.85;;
63114;SDS011;49208;50.874;6.466;2022-12-29T22:22:16;9.35;;;1.90;;
63114;SDS011;49208;50.874;6.466;2022-12-29T22:24:42;7.88;;;2.58;;
63114;SDS011;49208;50.874;6.466;2022-12-29T22:27:07;14.48;;;2.00;;
63114;SDS011;49208;50.874;6.466;2022-12-29T22:29:33;12.85;;;2.33;;
63114;SDS011;49208;50.874;6.466;2022-12-29T22:31:59;12.13;;;3.17;;
63114;SDS011;49208;50.874;6.466;2022-12-29T22:34:24;17.10;;;3.55;;
63114;SDS011;49208;50.874;6.466;2022-12-29T22:36:50;13.25;;;2.83;;
63114;SDS011;49208;50.874;6.466;2022-12-29T22:39:15;14.40;;;2.60;;
63114;SDS011;49208;50.874;6.466;2022-12-29T22:41:41;15.73;;;2.72;;
63114;SDS011;49208;50.874;6.466;2022-12-29T22:44:06;14.30;;;2.33;;
63114;SDS011;49208;50.874;6.466;2022-12-29T22:46:31;9.63;;;2.63;;
63114;SDS011;49208;50.874;6.466;2022-12-29T22:48:57;15.68;;;2.40;;
63114;SDS011;49208;50.874;6.466;2022-12-29T22:51:22;6.22;;;2.20;;
63114;SDS011;49208;50.874;6.466;2022-12-29T22:53:48;17.73;;;2.58;;
63114;SDS011;49208;50.874;6.466;2022-12-29T22:56:14;12.02;;;2.70;;
63114;SDS011;49208;50.874;6.466;2022-12-29T22:58:40;13.63;;;3.08;;
